sensor_id;sensor_type;location;lat;lon;timestamp;pressure;altitude;pressure_sealevel;temperature;humidity
43364;BME280;40636;52.424;-1.948;2023-04-30T00:01:21;100428.34;;;11.99;100.00
43364;BME280;40636;52.424;-1.948;2023-04-30T00:03:47;100428.81;;;11.96;100.00
43364;BME280;40636;52.424;-1.948;2023-04-30T00:06:14;100435.31;;;11.90;100.00
43364;BME280;40636;52.424;-1.948;2023-04-30T00:08:41;100428.66;;;11.86;100.00
43364;BME280;40636;52.424;-1.948;2023-04-30T00:11:08;100424.19;;;11.85;100.00
43364;BME280;40636;52.424;-1.948;2023-04-30T00:13:34;100428.50;;;11.81;100.00
43364;BME280;40636;52.424;-1.948;2023-04-30T00:16:01;100433.06;;;11.75;100.00
43364;BME280;40636;52.424;-1.948;2023-04-30T00:18:28;100428.41;;;11.76;100.00
43364;BME280;40636;52.424;-1.948;2023-04-30T00:20:54;100436.66;;;11.76;100.00
43364;BME280;40636;52.424;-1.948;2023-04-30T00:23:21;100428.41;;;11.76;100.00
43364;BME280;40636;52.424;-1.948;2023-04-30T00:25:48;100434.25;;;11.79;100.00
43364;BME280;40636;52.424;-1.948;2023-04-30T00:28:14;100431.97;;;11.76;100.00
43364;BME280;40636;52.424;-1.948;2023-04-30T00:30:41;100441.94;;;11.77;100.00
43364;BME280;40636;52.424;-1.948;2023-04-30T00:33:08;100438.09;;;11.78;100.00
43364;BME280;40636;52.424;-1.948;2023-04-30T00:35:34;100445.25;;;11.79;100.00
43364;BME280;40636;52.424;-1.948;2023-04-30T00:38:01;100434.25;;;11.79;100.00
43364;BME280;40636;52.424;-1.948;2023-04-30T00:40:28;100435.09;;;11.80;100.00
43364;BME280;40636;52.424;-1.948;2023-04-30T00:42:55;100437.00;;;11.79;100.00
43364;BME280;40636;52.424;-1.948;2023-04-30T00:45:21;100429.59;;;11.80;100.00
43364;BME280;40636;52.424;-1.948;2023-04-30T00:47:49;100427.34;;;11.77;100.00
43364;BME280;40636;52.424;-1.948;2023-04-30T00:50:15;100422.34;;;11.74;100.00
43364;BME280;40636;52.424;-1.948;2023-04-30T00:52:42;100426.16;;;11.73;100.00
43364;BME280;40636;52.424;-1.948;2023-04-30T00:55:12;100427.22;;;11.72;100.00
43364;BME280;40636;52.424;-1.948;2023-04-30T00:57:39;100420.06;;;11.71;100.00
43364;BME280;40636;52.424;-1.948;2023-04-30T01:00:07;100420.06;;;11.71;100.00
43364;BME280;40636;52.424;-1.948;2023-04-30T01:02:37;100412.56;;;11.66;100.00
43364;BME280;40636;52.424;-1.948;2023-04-30T01:05:04;100422.47;;;11.67;100.00
43364;BME280;40636;52.424;-1.948;2023-04-30T01:07:32;100422.06;;;11.58;100.00
43364;BME280;40636;52.424;-1.948;2023-04-30T01:09:59;100420.88;;;11.54;100.00
43364;BME280;40636;52.424;-1.948;2023-04-30T01:20:19;100425.28;;;11.27;100.00
43364;BME280;40636;52.424;-1.948;2023-04-30T01:26:28;100417.88;;;11.15;100.00
43364;BME280;40636;52.424;-1.948;2023-04-30T01:29:02;100420.44;;;11.05;100.00
43364;BME280;40636;52.424;-1.948;2023-04-30T01:31:29;100419.97;;;10.97;100.00
43364;BME280;40636;52.424;-1.948;2023-04-30T01:33:56;100416.75;;;10.88;100.00
43364;BME280;40636;52.424;-1.948;2023-04-30T01:44:53;100419.28;;;10.66;100.00
43364;BME280;40636;52.424;-1.948;2023-04-30T01:47:32;100412.94;;;10.65;100.00
43364;BME280;40636;52.424;-1.948;2023-04-30T01:50:37;100417.50;;;10.60;100.00
43364;BME280;40636;52.424;-1.948;2023-04-30T01:53:09;100417.38;;;10.55;100.00
43364;BME280;40636;52.424;-1.948;2023-04-30T01:55:43;100413.19;;;10.52;100.00
43364;BME280;40636;52.424;-1.948;2023-04-30T01:58:15;100409.75;;;10.45;100.00
43364;BME280;40636;52.424;-1.948;2023-04-30T02:00:42;100421.31;;;10.47;100.00
43364;BME280;40636;52.424;-1.948;2023-04-30T02:03:08;100415.94;;;10.40;100.00
43364;BME280;40636;52.424;-1.948;2023-04-30T02:05:35;100416.16;;;10.39;100.00
43364;BME280;40636;52.424;-1.948;2023-04-30T02:08:02;100424.28;;;10.34;100.00
43364;BME280;40636;52.424;-1.948;2023-04-30T02:10:29;100424.53;;;10.32;100.00
43364;BME280;40636;52.424;-1.948;2023-04-30T02:12:56;100425.81;;;10.30;100.00
43364;BME280;40636;52.424;-1.948;2023-04-30T02:15:23;100435.22;;;10.22;100.00
43364;BME280;40636;52.424;-1.948;2023-04-30T02:17:49;100432.69;;;10.21;100.00
43364;BME280;40636;52.424;-1.948;2023-04-30T02:20:16;100432.56;;;10.15;100.00
43364;BME280;40636;52.424;-1.948;2023-04-30T02:22:43;100429.84;;;10.15;100.00
43364;BME280;40636;52.424;-1.948;2023-04-30T02:25:09;100429.84;;;10.15;100.00
43364;BME280;40636;52.424;-1.948;2023-04-30T02:27:38;100429.13;;;10.08;100.00
43364;BME280;40636;52.424;-1.948;2023-04-30T02:30:05;100426.22;;;10.03;100.00
43364;BME280;40636;52.424;-1.948;2023-04-30T02:32:32;100425.75;;;10.06;100.00
43364;BME280;40636;52.424;-1.948;2023-04-30T02:34:59;100429.66;;;9.99;100.00
43364;BME280;40636;52.424;-1.948;2023-04-30T02:37:25;100426.81;;;9.94;100.00
43364;BME280;40636;52.424;-1.948;2023-04-30T02:39:52;100433.75;;;9.96;100.00
43364;BME280;40636;52.424;-1.948;2023-04-30T02:42:19;100431.47;;;9.93;100.00
43364;BME280;40636;52.424;-1.948;2023-04-30T02:44:46;100439.09;;;9.91;100.00
43364;BME280;40636;52.424;-1.948;2023-04-30T02:47:13;100433.47;;;9.86;100.00
43364;BME280;40636;52.424;-1.948;2023-04-30T02:49:40;100433.69;;;9.84;100.00
43364;BME280;40636;52.424;-1.948;2023-04-30T02:52:07;100430.81;;;9.79;100.00
43364;BME280;40636;52.424;-1.948;2023-04-30T02:54:35;100431.75;;;9.73;100.00
43364;BME280;40636;52.424;-1.948;2023-04-30T02:57:02;100430.63;;;9.62;100.00
43364;BME280;40636;52.424;-1.948;2023-04-30T02:59:29;100433.63;;;9.61;100.00
43364;BME280;40636;52.424;-1.948;2023-04-30T03:01:55;100429.91;;;9.55;100.00
43364;BME280;40636;52.424;-1.948;2023-04-30T03:04:22;100434.19;;;9.51;100.00
43364;BME280;40636;52.424;-1.948;2023-04-30T03:06:49;100437.38;;;9.48;100.00
43364;BME280;40636;52.424;-1.948;2023-04-30T03:09:16;100436.16;;;9.44;100.00
43364;BME280;40636;52.424;-1.948;2023-04-30T03:11:43;100434.94;;;9.40;100.00
43364;BME280;40636;52.424;-1.948;2023-04-30T03:14:10;100437.69;;;9.40;100.00
43364;BME280;40636;52.424;-1.948;2023-04-30T03:16:37;100433.97;;;9.34;100.00
43364;BME280;40636;52.424;-1.948;2023-04-30T03:19:03;100436.25;;;9.37;100.00
43364;BME280;40636;52.424;-1.948;2023-04-30T03:21:30;100439.69;;;9.33;100.00
43364;BME280;40636;52.424;-1.948;2023-04-30T03:23:56;100431.91;;;9.30;100.00
43364;BME280;40636;52.424;-1.948;2023-04-30T03:26:23;100436.31;;;9.31;100.00
43364;BME280;40636;52.424;-1.948;2023-04-30T03:28:50;100435.44;;;9.37;100.00
43364;BME280;40636;52.424;-1.948;2023-04-30T03:31:16;100425.44;;;9.43;100.00
43364;BME280;40636;52.424;-1.948;2023-04-30T03:33:43;100432.97;;;9.47;100.00
43364;BME280;40636;52.424;-1.948;2023-04-30T03:36:10;100427.50;;;9.47;100.00
43364;BME280;40636;52.424;-1.948;2023-04-30T03:38:37;100414.47;;;9.43;100.00
43364;BME280;40636;52.424;-1.948;2023-04-30T03:41:03;100426.13;;;9.38;100.00
43364;BME280;40636;52.424;-1.948;2023-04-30T03:43:30;100431.03;;;9.36;100.00
43364;BME280;40636;52.424;-1.948;2023-04-30T03:45:57;100424.09;;;9.33;100.00
43364;BME280;40636;52.424;-1.948;2023-04-30T03:48:24;100424.78;;;9.29;100.00
43364;BME280;40636;52.424;-1.948;2023-04-30T03:50:50;100430.34;;;9.22;100.00
43364;BME280;40636;52.424;-1.948;2023-04-30T03:53:17;100426.16;;;9.20;100.00
43364;BME280;40636;52.424;-1.948;2023-04-30T03:55:44;100426.84;;;9.15;100.00
43364;BME280;40636;52.424;-1.948;2023-04-30T03:58:10;100423.97;;;9.10;100.00
43364;BME280;40636;52.424;-1.948;2023-04-30T04:00:39;100419.56;;;9.09;100.00
43364;BME280;40636;52.424;-1.948;2023-04-30T04:03:07;100417.53;;;9.04;100.00
43364;BME280;40636;52.424;-1.948;2023-04-30T04:05:33;100413.09;;;9.03;100.00
43364;BME280;40636;52.424;-1.948;2023-04-30T04:08:00;100417.19;;;8.94;100.00
43364;BME280;40636;52.424;-1.948;2023-04-30T04:10:27;100412.78;;;8.93;100.00
43364;BME280;40636;52.424;-1.948;2023-04-30T04:12:54;100406.25;;;8.94;100.00
43364;BME280;40636;52.424;-1.948;2023-04-30T04:15:20;100415.13;;;8.89;100.00
43364;BME280;40636;52.424;-1.948;2023-04-30T04:17:47;100413.03;;;8.92;100.00
43364;BME280;40636;52.424;-1.948;2023-04-30T04:20:14;100405.66;;;8.92;100.00
43364;BME280;40636;52.424;-1.948;2023-04-30T04:22:41;100402.09;;;8.92;100.00
43364;BME280;40636;52.424;-1.948;2023-04-30T04:25:08;100404.28;;;8.83;100.00
43364;BME280;40636;52.424;-1.948;2023-04-30T04:27:35;100401.41;;;8.78;100.00
43364;BME280;40636;52.424;-1.948;2023-04-30T04:30:02;100406.88;;;8.78;100.00
43364;BME280;40636;52.424;-1.948;2023-04-30T04:32:29;100412.41;;;8.71;100.00
43364;BME280;40636;52.424;-1.948;2023-04-30T04:34:58;100419.19;;;8.69;100.00
43364;BME280;40636;52.424;-1.948;2023-04-30T04:37:24;100418.09;;;8.70;100.00
43364;BME280;40636;52.424;-1.948;2023-04-30T04:39:51;100414.97;;;8.66;100.00
43364;BME280;40636;52.424;-1.948;2023-04-30T04:42:18;100417.50;;;8.68;100.00
43364;BME280;40636;52.424;-1.948;2023-04-30T04:44:45;100413.75;;;8.62;100.00
43364;BME280;40636;52.424;-1.948;2023-04-30T04:47:12;100417.66;;;8.54;100.00
43364;BME280;40636;52.424;-1.948;2023-04-30T04:49:39;100418.09;;;8.51;100.00
43364;BME280;40636;52.424;-1.948;2023-04-30T04:52:06;100415.94;;;8.53;100.00
43364;BME280;40636;52.424;-1.948;2023-04-30T04:54:33;100413.44;;;8.52;100.00
43364;BME280;40636;52.424;-1.948;2023-04-30T04:56:59;100410.94;;;8.50;100.00
43364;BME280;40636;52.424;-1.948;2023-04-30T04:59:26;100414.72;;;8.49;100.00
43364;BME280;40636;52.424;-1.948;2023-04-30T05:01:53;100405.47;;;8.50;100.00
43364;BME280;40636;52.424;-1.948;2023-04-30T05:04:20;100409.88;;;8.51;100.00
43364;BME280;40636;52.424;-1.948;2023-04-30T05:06:46;100409.66;;;8.53;100.00
43364;BME280;40636;52.424;-1.948;2023-04-30T05:09:13;100412.63;;;8.51;100.00
43364;BME280;40636;52.424;-1.948;2023-04-30T05:11:40;100412.53;;;8.58;100.00
43364;BME280;40636;52.424;-1.948;2023-04-30T05:14:07;100406.84;;;8.59;100.00
43364;BME280;40636;52.424;-1.948;2023-04-30T05:16:33;100411.19;;;8.67;100.00
43364;BME280;40636;52.424;-1.948;2023-04-30T05:19:00;100407.41;;;8.68;100.00
43364;BME280;40636;52.424;-1.948;2023-04-30T05:21:27;100410.06;;;8.75;100.00
43364;BME280;40636;52.424;-1.948;2023-04-30T05:23:55;100411.88;;;8.81;100.00
43364;BME280;40636;52.424;-1.948;2023-04-30T05:26:22;100405.94;;;8.84;100.00
43364;BME280;40636;52.424;-1.948;2023-04-30T05:28:49;100406.09;;;8.89;100.00
43364;BME280;40636;52.424;-1.948;2023-04-30T05:31:17;100411.97;;;8.93;100.00
43364;BME280;40636;52.424;-1.948;2023-04-30T05:33:46;100412.25;;;9.03;100.00
43364;BME280;40636;52.424;-1.948;2023-04-30T05:36:13;100410.03;;;9.11;100.00
43364;BME280;40636;52.424;-1.948;2023-04-30T05:38:40;100408.44;;;9.22;100.00
43364;BME280;40636;52.424;-1.948;2023-04-30T05:41:10;100420.69;;;9.20;100.00
43364;BME280;40636;52.424;-1.948;2023-04-30T05:43:37;100409.03;;;9.24;100.00
43364;BME280;40636;52.424;-1.948;2023-04-30T05:46:03;100408.34;;;9.29;100.00
43364;BME280;40636;52.424;-1.948;2023-04-30T05:48:30;100416.13;;;9.32;100.00
43364;BME280;40636;52.424;-1.948;2023-04-30T05:50:57;100409.56;;;9.33;100.00
43364;BME280;40636;52.424;-1.948;2023-04-30T05:53:24;100416.47;;;9.35;100.00
43364;BME280;40636;52.424;-1.948;2023-04-30T05:55:50;100414.59;;;9.36;100.00
43364;BME280;40636;52.424;-1.948;2023-04-30T05:58:17;100424.00;;;9.40;100.00
43364;BME280;40636;52.424;-1.948;2023-04-30T06:00:48;100410.66;;;9.44;100.00
43364;BME280;40636;52.424;-1.948;2023-04-30T06:03:15;100417.91;;;9.38;100.00
43364;BME280;40636;52.424;-1.948;2023-04-30T06:05:42;100410.91;;;9.42;100.00
43364;BME280;40636;52.424;-1.948;2023-04-30T06:08:09;100422.28;;;9.57;100.00
43364;BME280;40636;52.424;-1.948;2023-04-30T06:10:36;100425.06;;;9.69;100.00
43364;BME280;40636;52.424;-1.948;2023-04-30T06:13:05;100420.94;;;9.78;100.00
43364;BME280;40636;52.424;-1.948;2023-04-30T06:15:32;100414.38;;;9.79;100.00
43364;BME280;40636;52.424;-1.948;2023-04-30T06:17:59;100416.03;;;9.80;100.00
43364;BME280;40636;52.424;-1.948;2023-04-30T06:20:26;100419.91;;;9.91;100.00
43364;BME280;40636;52.424;-1.948;2023-04-30T06:22:57;100413.47;;;9.97;100.00
43364;BME280;40636;52.424;-1.948;2023-04-30T06:25:27;100414.44;;;10.03;100.00
43364;BME280;40636;52.424;-1.948;2023-04-30T06:27:54;100412.75;;;10.02;100.00
43364;BME280;40636;52.424;-1.948;2023-04-30T06:30:21;100423.47;;;10.03;100.00
43364;BME280;40636;52.424;-1.948;2023-04-30T06:32:47;100418.00;;;10.03;100.00
43364;BME280;40636;52.424;-1.948;2023-04-30T06:35:14;100421.56;;;9.92;100.00
43364;BME280;40636;52.424;-1.948;2023-04-30T06:37:41;100415.84;;;9.94;100.00
43364;BME280;40636;52.424;-1.948;2023-04-30T06:40:09;100420.34;;;9.88;100.00
43364;BME280;40636;52.424;-1.948;2023-04-30T06:42:41;100422.72;;;9.84;100.00
43364;BME280;40636;52.424;-1.948;2023-04-30T06:45:20;100418.81;;;9.92;100.00
43364;BME280;40636;52.424;-1.948;2023-04-30T06:47:47;100417.88;;;9.98;100.00
43364;BME280;40636;52.424;-1.948;2023-04-30T06:50:14;100419.06;;;10.02;100.00
43364;BME280;40636;52.424;-1.948;2023-04-30T06:52:41;100416.84;;;10.11;100.00
43364;BME280;40636;52.424;-1.948;2023-04-30T06:55:08;100415.16;;;10.22;100.00
43364;BME280;40636;52.424;-1.948;2023-04-30T06:57:35;100418.88;;;10.15;100.00
43364;BME280;40636;52.424;-1.948;2023-04-30T07:00:06;100422.50;;;10.28;100.00
43364;BME280;40636;52.424;-1.948;2023-04-30T07:02:34;100417.97;;;10.33;100.00
43364;BME280;40636;52.424;-1.948;2023-04-30T07:05:01;100416.16;;;10.39;100.00
43364;BME280;40636;52.424;-1.948;2023-04-30T07:07:28;100416.44;;;10.49;100.00
43364;BME280;40636;52.424;-1.948;2023-04-30T07:09:55;100418.31;;;10.49;100.00
43364;BME280;40636;52.424;-1.948;2023-04-30T07:12:25;100411.41;;;10.46;100.00
43364;BME280;40636;52.424;-1.948;2023-04-30T07:14:54;100414.03;;;10.53;100.00
43364;BME280;40636;52.424;-1.948;2023-04-30T07:17:26;100413.19;;;10.64;100.00
43364;BME280;40636;52.424;-1.948;2023-04-30T07:19:58;100417.25;;;10.73;100.00
43364;BME280;40636;52.424;-1.948;2023-04-30T07:22:25;100416.38;;;10.84;100.00
43364;BME280;40636;52.424;-1.948;2023-04-30T07:24:53;100419.38;;;10.83;100.00
43364;BME280;40636;52.424;-1.948;2023-04-30T07:27:20;100417.94;;;10.92;100.00
43364;BME280;40636;52.424;-1.948;2023-04-30T07:29:46;100406.69;;;11.05;100.00
43364;BME280;40636;52.424;-1.948;2023-04-30T07:32:14;100407.03;;;11.09;100.00
43364;BME280;40636;52.424;-1.948;2023-04-30T07:34:41;100409.75;;;11.21;100.00
43364;BME280;40636;52.424;-1.948;2023-04-30T07:37:08;100415.25;;;11.21;100.00
43364;BME280;40636;52.424;-1.948;2023-04-30T07:39:35;100399.47;;;11.28;100.00
43364;BME280;40636;52.424;-1.948;2023-04-30T07:42:05;100407.59;;;11.23;100.00
43364;BME280;40636;52.424;-1.948;2023-04-30T07:44:32;100402.31;;;11.33;100.00
43364;BME280;40636;52.424;-1.948;2023-04-30T07:46:59;100410.41;;;11.39;100.00
43364;BME280;40636;52.424;-1.948;2023-04-30T07:49:27;100412.69;;;11.31;100.00
43364;BME280;40636;52.424;-1.948;2023-04-30T07:51:54;100409.13;;;11.30;100.00
43364;BME280;40636;52.424;-1.948;2023-04-30T07:54:22;100417.81;;;11.39;100.00
43364;BME280;40636;52.424;-1.948;2023-04-30T07:56:48;100418.84;;;11.50;100.00
43364;BME280;40636;52.424;-1.948;2023-04-30T07:59:15;100406.53;;;11.52;100.00
43364;BME280;40636;52.424;-1.948;2023-04-30T08:01:43;100405.69;;;11.52;100.00
43364;BME280;40636;52.424;-1.948;2023-04-30T08:04:10;100406.41;;;11.59;100.00
43364;BME280;40636;52.424;-1.948;2023-04-30T08:06:36;100398.25;;;11.64;100.00
43364;BME280;40636;52.424;-1.948;2023-04-30T08:09:03;100403.09;;;11.74;100.00
43364;BME280;40636;52.424;-1.948;2023-04-30T08:11:30;100405.09;;;11.78;100.00
43364;BME280;40636;52.424;-1.948;2023-04-30T08:13:56;100402.75;;;11.70;100.00
43364;BME280;40636;52.424;-1.948;2023-04-30T08:16:23;100403.47;;;11.65;100.00
43364;BME280;40636;52.424;-1.948;2023-04-30T08:18:50;100398.06;;;11.71;100.00
43364;BME280;40636;52.424;-1.948;2023-04-30T08:21:17;100407.88;;;11.66;100.00
43364;BME280;40636;52.424;-1.948;2023-04-30T08:23:43;100401.22;;;11.62;100.00
43364;BME280;40636;52.424;-1.948;2023-04-30T08:26:10;100409.97;;;11.59;100.00
43364;BME280;40636;52.424;-1.948;2023-04-30T08:28:37;100410.34;;;11.51;100.00
43364;BME280;40636;52.424;-1.948;2023-04-30T08:31:03;100411.94;;;11.47;100.00
43364;BME280;40636;52.424;-1.948;2023-04-30T08:33:30;100413.66;;;11.36;100.00
43364;BME280;40636;52.424;-1.948;2023-04-30T08:35:57;100411.03;;;11.30;100.00
43364;BME280;40636;52.424;-1.948;2023-04-30T08:38:25;100407.59;;;11.23;100.00
43364;BME280;40636;52.424;-1.948;2023-04-30T08:41:12;100419.69;;;11.10;100.00
43364;BME280;40636;52.424;-1.948;2023-04-30T08:43:40;100415.41;;;11.02;100.00
43364;BME280;40636;52.424;-1.948;2023-04-30T08:46:07;100406.91;;;11.15;100.00
43364;BME280;40636;52.424;-1.948;2023-04-30T08:48:34;100406.31;;;11.13;100.00
43364;BME280;40636;52.424;-1.948;2023-04-30T08:51:01;100409.53;;;11.10;100.00
43364;BME280;40636;52.424;-1.948;2023-04-30T08:53:33;100416.69;;;11.11;100.00
43364;BME280;40636;52.424;-1.948;2023-04-30T08:56:01;100418.50;;;11.17;100.00
43364;BME280;40636;52.424;-1.948;2023-04-30T08:58:28;100410.84;;;11.20;100.00
43364;BME280;40636;52.424;-1.948;2023-04-30T09:00:57;100418.91;;;11.26;100.00
43364;BME280;40636;52.424;-1.948;2023-04-30T09:03:25;100415.94;;;11.28;100.00
43364;BME280;40636;52.424;-1.948;2023-04-30T09:05:53;100416.53;;;11.30;100.00
43364;BME280;40636;52.424;-1.948;2023-04-30T09:08:43;100405.63;;;11.35;100.00
43364;BME280;40636;52.424;-1.948;2023-04-30T09:11:20;100401.31;;;11.39;100.00
43364;BME280;40636;52.424;-1.948;2023-04-30T09:13:53;100402.50;;;11.43;100.00
43364;BME280;40636;52.424;-1.948;2023-04-30T09:16:20;100411.44;;;11.50;100.00
43364;BME280;40636;52.424;-1.948;2023-04-30T09:18:48;100415.75;;;11.46;100.00
43364;BME280;40636;52.424;-1.948;2023-04-30T09:21:15;100413.50;;;11.43;100.00
43364;BME280;40636;52.424;-1.948;2023-04-30T09:23:56;100412.41;;;11.44;100.00
43364;BME280;40636;52.424;-1.948;2023-04-30T09:26:31;100405.84;;;11.45;100.00
43364;BME280;40636;52.424;-1.948;2023-04-30T09:28:59;100407.41;;;11.41;100.00
43364;BME280;40636;52.424;-1.948;2023-04-30T09:31:26;100407.50;;;11.46;100.00
43364;BME280;40636;52.424;-1.948;2023-04-30T09:33:53;100403.56;;;11.54;100.00
43364;BME280;40636;52.424;-1.948;2023-04-30T09:36:20;100406.88;;;11.56;100.00
43364;BME280;40636;52.424;-1.948;2023-04-30T09:38:46;100395.72;;;11.62;100.00
43364;BME280;40636;52.424;-1.948;2023-04-30T09:41:24;100412.06;;;11.69;100.00
43364;BME280;40636;52.424;-1.948;2023-04-30T09:43:56;100409.75;;;11.78;100.00
43364;BME280;40636;52.424;-1.948;2023-04-30T09:46:31;100405.09;;;11.78;100.00
43364;BME280;40636;52.424;-1.948;2023-04-30T09:48:59;100393.75;;;11.75;100.00
43364;BME280;40636;52.424;-1.948;2023-04-30T09:51:27;100402.59;;;11.77;100.00
43364;BME280;40636;52.424;-1.948;2023-04-30T09:53:54;100403.28;;;11.84;100.00
43364;BME280;40636;52.424;-1.948;2023-04-30T09:56:23;100404.47;;;11.88;100.00
43364;BME280;40636;52.424;-1.948;2023-04-30T09:58:55;100403.09;;;11.74;100.00
43364;BME280;40636;52.424;-1.948;2023-04-30T10:01:26;100397.78;;;11.84;100.00
43364;BME280;40636;52.424;-1.948;2023-04-30T10:03:53;100396.34;;;11.81;100.00
43364;BME280;40636;52.424;-1.948;2023-04-30T10:06:21;100406.56;;;11.98;100.00
43364;BME280;40636;52.424;-1.948;2023-04-30T10:08:55;100395.16;;;12.06;100.00
43364;BME280;40636;52.424;-1.948;2023-04-30T10:11:27;100403.16;;;12.24;100.00
43364;BME280;40636;52.424;-1.948;2023-04-30T10:14:00;100396.00;;;12.23;100.00
43364;BME280;40636;52.424;-1.948;2023-04-30T10:19:18;100398.28;;;12.48;100.00
43364;BME280;40636;52.424;-1.948;2023-04-30T10:21:46;100391.94;;;12.64;100.00
43364;BME280;40636;52.424;-1.948;2023-04-30T10:24:14;100391.56;;;12.78;100.00
43364;BME280;40636;52.424;-1.948;2023-04-30T10:26:41;100388.22;;;12.76;100.00
43364;BME280;40636;52.424;-1.948;2023-04-30T10:29:08;100386.31;;;12.98;100.00
43364;BME280;40636;52.424;-1.948;2023-04-30T10:31:37;100385.56;;;13.03;100.00
43364;BME280;40636;52.424;-1.948;2023-04-30T10:37:38;100379.56;;;13.06;100.00
43364;BME280;40636;52.424;-1.948;2023-04-30T10:40:08;100379.28;;;13.07;100.00
43364;BME280;40636;52.424;-1.948;2023-04-30T10:42:36;100380.75;;;13.15;100.00
43364;BME280;40636;52.424;-1.948;2023-04-30T10:45:04;100384.88;;;13.34;100.00
43364;BME280;40636;52.424;-1.948;2023-04-30T10:47:35;100376.97;;;13.43;100.00
43364;BME280;40636;52.424;-1.948;2023-04-30T10:50:03;100375.59;;;13.67;100.00
43364;BME280;40636;52.424;-1.948;2023-04-30T10:52:30;100373.44;;;13.75;100.00
43364;BME280;40636;52.424;-1.948;2023-04-30T10:54:57;100368.31;;;13.88;100.00
43364;BME280;40636;52.424;-1.948;2023-04-30T10:57:28;100367.50;;;13.88;100.00
43364;BME280;40636;52.424;-1.948;2023-04-30T11:02:43;100372.63;;;13.74;100.00
43364;BME280;40636;52.424;-1.948;2023-04-30T11:05:15;100368.28;;;13.56;100.00
43364;BME280;40636;52.424;-1.948;2023-04-30T11:07:51;100363.66;;;13.62;100.00
43364;BME280;40636;52.424;-1.948;2023-04-30T11:10:23;100357.84;;;13.58;100.00
43364;BME280;40636;52.424;-1.948;2023-04-30T11:12:52;100362.03;;;13.66;100.00
43364;BME280;40636;52.424;-1.948;2023-04-30T11:15:23;100359.19;;;13.56;100.00
43364;BME280;40636;52.424;-1.948;2023-04-30T11:17:50;100351.59;;;13.68;100.00
43364;BME280;40636;52.424;-1.948;2023-04-30T11:20:23;100349.59;;;13.90;100.00
43364;BME280;40636;52.424;-1.948;2023-04-30T11:23:09;100349.53;;;14.17;100.00
43364;BME280;40636;52.424;-1.948;2023-04-30T11:25:41;100344.06;;;14.23;100.00
43364;BME280;40636;52.424;-1.948;2023-04-30T11:30:41;100345.22;;;14.32;100.00
43364;BME280;40636;52.424;-1.948;2023-04-30T11:33:08;100345.94;;;14.49;100.00
43364;BME280;40636;52.424;-1.948;2023-04-30T11:35:37;100344.25;;;14.48;100.00
43364;BME280;40636;52.424;-1.948;2023-04-30T11:38:06;100339.53;;;14.49;100.00
43364;BME280;40636;52.424;-1.948;2023-04-30T11:40:34;100345.38;;;14.52;100.00
43364;BME280;40636;52.424;-1.948;2023-04-30T11:43:02;100340.72;;;14.58;100.00
43364;BME280;40636;52.424;-1.948;2023-04-30T11:45:30;100331.84;;;14.51;100.00
43364;BME280;40636;52.424;-1.948;2023-04-30T11:47:56;100332.50;;;14.68;100.00
43364;BME280;40636;52.424;-1.948;2023-04-30T11:50:26;100329.50;;;14.80;100.00
43364;BME280;40636;52.424;-1.948;2023-04-30T11:52:56;100327.25;;;14.71;100.00
43364;BME280;40636;52.424;-1.948;2023-04-30T11:55:24;100337.75;;;14.75;100.00
43364;BME280;40636;52.424;-1.948;2023-04-30T11:57:53;100325.63;;;14.76;100.00
43364;BME280;40636;52.424;-1.948;2023-04-30T12:00:28;100327.88;;;14.89;100.00
43364;BME280;40636;52.424;-1.948;2023-04-30T12:02:57;100323.59;;;15.23;100.00
43364;BME280;40636;52.424;-1.948;2023-04-30T12:05:26;100329.41;;;15.27;100.00
43364;BME280;40636;52.424;-1.948;2023-04-30T12:07:59;100324.44;;;15.29;100.00
43364;BME280;40636;52.424;-1.948;2023-04-30T12:10:26;100324.19;;;15.51;100.00
43364;BME280;40636;52.424;-1.948;2023-04-30T12:12:53;100322.84;;;15.54;100.00
43364;BME280;40636;52.424;-1.948;2023-04-30T12:15:22;100318.47;;;15.68;100.00
43364;BME280;40636;52.424;-1.948;2023-04-30T12:17:54;100314.56;;;15.79;100.00
43364;BME280;40636;52.424;-1.948;2023-04-30T12:20:25;100312.66;;;15.95;100.00
43364;BME280;40636;52.424;-1.948;2023-04-30T12:22:52;100312.91;;;15.88;100.00
43364;BME280;40636;52.424;-1.948;2023-04-30T12:25:22;100313.75;;;15.79;100.00
43364;BME280;40636;52.424;-1.948;2023-04-30T12:27:50;100314.88;;;15.72;100.00
43364;BME280;40636;52.424;-1.948;2023-04-30T12:30:23;100314.28;;;15.70;100.00
43364;BME280;40636;52.424;-1.948;2023-04-30T12:32:52;100315.88;;;15.36;100.00
43364;BME280;40636;52.424;-1.948;2023-04-30T12:35:21;100309.78;;;15.44;100.00
43364;BME280;40636;52.424;-1.948;2023-04-30T12:37:50;100315.84;;;15.26;100.00
43364;BME280;40636;52.424;-1.948;2023-04-30T12:40:25;100311.41;;;15.14;100.00
43364;BME280;40636;52.424;-1.948;2023-04-30T12:43:00;100313.50;;;14.82;100.00
43364;BME280;40636;52.424;-1.948;2023-04-30T12:45:49;100312.38;;;14.78;100.00
43364;BME280;40636;52.424;-1.948;2023-04-30T12:48:21;100312.94;;;14.80;100.00
43364;BME280;40636;52.424;-1.948;2023-04-30T12:50:59;100311.84;;;14.81;100.00
43364;BME280;40636;52.424;-1.948;2023-04-30T12:53:30;100323.97;;;14.80;100.00
43364;BME280;40636;52.424;-1.948;2023-04-30T12:58:38;100317.25;;;14.60;100.00
43364;BME280;40636;52.424;-1.948;2023-04-30T13:01:09;100327.56;;;14.33;100.00
43364;BME280;40636;52.424;-1.948;2023-04-30T13:03:37;100315.69;;;14.32;100.00
43364;BME280;40636;52.424;-1.948;2023-04-30T13:06:04;100318.84;;;14.09;100.00
43364;BME280;40636;52.424;-1.948;2023-04-30T13:08:32;100327.59;;;14.01;100.00
43364;BME280;40636;52.424;-1.948;2023-04-30T13:11:19;100322.28;;;13.94;100.00
43364;BME280;40636;52.424;-1.948;2023-04-30T13:13:47;100318.00;;;14.08;100.00